Time;durP1;ratioP1;P1;durP2;ratioP2;P2;SDS_P1;SDS_P2;PMS_P1;PMS_P2;Temp;Humidity;BMP_temperature;BMP_pressure;BME280_temperature;BME280_humidity;BME280_pressure;Samples;Min_cycle;Max_cycle;Signal;HPM_P1;HPM_P2
2021/01/17 00:00:17;;;;;;;79.60;35.42;;;-1.70;99.90;;;;;;4993664;28;20030;-79
2021/01/17 00:02:45;;;;;;;66.13;29.48;;;-1.80;99.90;;;;;;4994577;28;20372;-79
2021/01/17 00:05:17;;;;;;;70.18;32.95;;;-1.80;99.90;;;;;;4992905;28;20063;-79
2021/01/17 00:07:43;;;;;;;73.47;32.08;;;-1.80;99.90;;;;;;4994270;28;20031;-79
2021/01/17 00:10:12;;;;;;;115.80;52.38;;;-1.80;99.90;;;;;;4976246;28;20038;-78
2021/01/17 00:12:39;;;;;;;78.57;34.05;;;-1.70;99.90;;;;;;4994435;28;20030;-79
2021/01/17 00:15:10;;;;;;;139.38;59.53;;;-1.70;99.90;;;;;;4993867;28;20353;-79
2021/01/17 00:17:41;;;;;;;90.70;40.83;;;-1.70;99.90;;;;;;4994526;28;20073;-78
2021/01/17 00:20:21;;;;;;;89.22;41.40;;;-1.70;99.90;;;;;;4994060;28;20034;-79
2021/01/17 00:22:48;;;;;;;100.28;45.70;;;-1.70;99.90;;;;;;4994067;28;20464;-79
2021/01/17 00:25:17;;;;;;;99.43;45.28;;;-1.70;99.90;;;;;;4992858;28;20568;-79
2021/01/17 00:27:44;;;;;;;93.32;42.28;;;-1.70;99.90;;;;;;4992999;28;20053;-79
2021/01/17 00:30:11;;;;;;;91.35;41.60;;;-1.70;99.90;;;;;;4987798;28;20044;-79
2021/01/17 00:32:38;;;;;;;64.82;30.92;;;-1.70;99.90;;;;;;4993641;28;20030;-79
2021/01/17 00:35:08;;;;;;;76.22;34.85;;;-1.70;99.90;;;;;;4993480;28;20391;-78
2021/01/17 00:37:35;;;;;;;74.70;34.72;;;-1.70;99.90;;;;;;4993679;28;20387;-79
2021/01/17 00:40:01;;;;;;;72.13;31.27;;;-1.70;99.90;;;;;;4976462;28;20368;-79
2021/01/17 00:42:28;;;;;;;63.88;29.50;;;-1.70;99.90;;;;;;4994187;28;20030;-79
2021/01/17 00:44:54;;;;;;;65.22;30.60;;;-1.70;99.90;;;;;;4993380;28;20384;-79
2021/01/17 00:47:21;;;;;;;53.28;28.90;;;-1.70;99.90;;;;;;4993679;28;20035;-79
2021/01/17 00:49:47;;;;;;;62.08;29.83;;;-1.70;99.90;;;;;;4975890;28;20475;-79
2021/01/17 00:52:19;;;;;;;62.17;29.40;;;-1.70;99.90;;;;;;4991143;28;20049;-79
2021/01/17 00:54:46;;;;;;;61.80;28.00;;;-1.70;99.90;;;;;;4992795;28;20046;-79
2021/01/17 00:57:14;;;;;;;64.43;28.48;;;-1.70;99.90;;;;;;4975213;28;20049;-79
2021/01/17 00:59:41;;;;;;;70.20;30.23;;;-1.70;99.90;;;;;;4991707;28;20046;-80
2021/01/17 01:02:09;;;;;;;62.25;27.58;;;-1.70;99.90;;;;;;4975016;28;20045;-79
2021/01/17 01:04:35;;;;;;;64.57;28.30;;;-1.70;99.90;;;;;;4993271;28;20038;-80
2021/01/17 01:07:02;;;;;;;60.55;28.58;;;-1.70;99.90;;;;;;4993055;28;20044;-79
2021/01/17 01:09:28;;;;;;;61.08;28.00;;;-1.70;99.90;;;;;;4993051;28;20030;-80
2021/01/17 01:11:54;;;;;;;65.90;28.50;;;-1.70;99.90;;;;;;4992812;28;20022;-80
2021/01/17 01:14:21;;;;;;;65.05;30.60;;;-1.70;99.90;;;;;;4993307;28;20038;-80
2021/01/17 01:16:49;;;;;;;63.17;29.65;;;-1.70;99.90;;;;;;4975621;28;20472;-80
2021/01/17 01:19:15;;;;;;;67.72;29.63;;;-1.70;99.90;;;;;;4992414;28;20588;-80
2021/01/17 01:21:42;;;;;;;58.83;28.45;;;-1.70;99.90;;;;;;4993012;28;20030;-79
2021/01/17 01:24:09;;;;;;;67.00;29.95;;;-1.70;99.90;;;;;;4992446;28;20030;-79
2021/01/17 01:26:40;;;;;;;64.47;31.05;;;-1.70;99.90;;;;;;4992920;28;20380;-79
2021/01/17 01:29:07;;;;;;;;;;;-1.70;99.90;;;;;;4993035;28;20379;-80
2021/01/17 01:31:35;;;;;;;64.10;26.52;;;-1.70;99.90;;;;;;4993219;28;19909;-80
2021/01/17 01:34:02;;;;;;;60.70;29.83;;;-1.70;99.90;;;;;;4992288;28;20030;-80
2021/01/17 01:36:37;;;;;;;65.25;29.27;;;-1.70;99.90;;;;;;4974920;28;20035;-80
2021/01/17 01:39:05;;;;;;;65.35;29.75;;;-1.70;99.90;;;;;;4958553;28;20038;-80
2021/01/17 01:41:33;;;;;;;71.47;29.63;;;-1.70;99.90;;;;;;4975071;28;20038;-80
2021/01/17 01:44:00;;;;;;;60.45;27.92;;;-1.70;99.90;;;;;;4974655;28;20034;-80
2021/01/17 01:46:28;;;;;;;70.20;30.52;;;-1.70;99.90;;;;;;4993040;28;20049;-80
2021/01/17 01:48:55;;;;;;;60.75;27.08;;;-1.70;99.90;;;;;;4992822;28;20372;-80
2021/01/17 01:51:25;;;;;;;66.78;28.00;;;-1.70;99.90;;;;;;4991541;28;20046;-80
2021/01/17 01:53:53;;;;;;;63.78;29.05;;;-1.70;99.90;;;;;;4992647;28;20042;-79
2021/01/17 01:56:20;;;;;;;68.18;30.23;;;-1.70;99.90;;;;;;4991942;28;20042;-79
2021/01/17 01:58:47;;;;;;;58.80;27.90;;;-1.70;99.90;;;;;;4991883;28;20042;-79
2021/01/17 02:01:14;;;;;;;58.83;27.95;;;-1.70;99.90;;;;;;4991885;28;20046;-80
2021/01/17 02:03:45;;;;;;;56.63;28.17;;;-1.70;99.90;;;;;;4992839;28;20026;-79
2021/01/17 02:06:12;;;;;;;59.97;27.20;;;-1.70;99.90;;;;;;4992027;28;20042;-79
2021/01/17 02:09:08;;;;;;;62.30;28.02;;;-1.70;99.90;;;;;;4992144;28;20038;-79
2021/01/17 02:11:36;;;;;;;59.13;27.58;;;-1.70;99.90;;;;;;4992391;28;20034;-79
2021/01/17 02:14:33;;;;;;;55.90;27.23;;;-1.70;99.90;;;;;;4994007;28;20367;-80
2021/01/17 02:17:04;;;;;;;57.78;29.00;;;-1.70;99.90;;;;;;4995701;28;20463;-79
2021/01/17 02:19:35;;;;;;;57.65;26.20;;;-1.70;99.90;;;;;;4996563;28;20035;-79
2021/01/17 02:22:02;;;;;;;;;;;-1.70;99.90;;;;;;4996335;28;20041;-80
2021/01/17 02:24:41;;;;;;;61.05;28.02;;;-1.70;99.90;;;;;;4995864;28;20380;-80
2021/01/17 02:27:07;;;;;;;58.35;25.92;;;-1.70;99.90;;;;;;4973637;28;20408;-79
2021/01/17 02:29:35;;;;;;;71.28;28.33;;;-1.70;99.90;;;;;;4996389;28;20490;-79
2021/01/17 02:32:03;;;;;;;61.72;28.83;;;-1.70;99.90;;;;;;4995678;28;20034;-79
2021/01/17 02:34:29;;;;;;;59.10;27.00;;;-1.70;99.90;;;;;;4996473;28;20049;-80
2021/01/17 02:37:12;;;;;;;58.38;28.02;;;-1.70;99.90;;;;;;4995102;28;20396;-79
2021/01/17 02:39:50;;;;;;;64.85;29.63;;;-1.70;99.90;;;;;;4977730;28;20049;-80
2021/01/17 02:42:16;;;;;;;58.60;27.35;;;-1.70;99.90;;;;;;4978042;28;20030;-79
2021/01/17 02:44:43;;;;;;;59.38;28.17;;;-1.70;99.90;;;;;;4995534;28;20042;-79
2021/01/17 02:47:09;;;;;;;63.88;29.08;;;-1.70;99.90;;;;;;4995000;28;20026;-80
2021/01/17 02:49:36;;;;;;;60.63;27.30;;;-1.70;99.90;;;;;;4993456;28;20042;-79
2021/01/17 02:52:05;;;;;;;59.00;27.88;;;-1.70;99.90;;;;;;4995305;28;20029;-79
2021/01/17 02:54:37;;;;;;;57.58;26.83;;;-1.70;99.90;;;;;;4995861;28;20042;-79
2021/01/17 02:57:06;;;;;;;59.42;27.80;;;-1.70;99.90;;;;;;5014563;28;20045;-79
2021/01/17 02:59:42;;;;;;;56.42;26.98;;;-1.70;99.90;;;;;;5014748;28;20042;-79
2021/01/17 03:02:09;;;;;;;61.10;27.65;;;-1.70;99.90;;;;;;4992629;28;20484;-79
2021/01/17 03:04:44;;;;;;;56.65;27.60;;;-1.70;99.90;;;;;;4995536;28;20049;-79
2021/01/17 03:07:13;;;;;;;56.10;27.45;;;-1.70;99.90;;;;;;4995189;28;20034;-79
2021/01/17 03:09:43;;;;;;;56.58;26.17;;;-1.70;99.90;;;;;;4995216;28;20041;-79
2021/01/17 03:12:10;;;;;;;61.20;28.63;;;-1.70;99.90;;;;;;4995065;28;20023;-79
2021/01/17 03:14:37;;;;;;;59.13;25.67;;;-1.70;99.90;;;;;;4994951;28;20042;-79
2021/01/17 03:17:08;;;;;;;53.97;24.80;;;-1.70;99.90;;;;;;4994939;28;20134;-79
2021/01/17 03:19:35;;;;;;;62.70;26.65;;;-1.70;99.90;;;;;;4995111;28;20034;-79
2021/01/17 03:22:01;;;;;;;58.10;26.88;;;-1.70;99.90;;;;;;4977387;28;20041;-79
2021/01/17 03:24:28;;;;;;;57.53;26.40;;;-1.70;99.90;;;;;;4994635;28;20038;-79
2021/01/17 03:26:54;;;;;;;47.42;24.73;;;-1.70;99.90;;;;;;4994484;28;20066;-79
2021/01/17 03:29:20;;;;;;;62.95;27.58;;;-1.70;99.90;;;;;;4994740;28;20034;-78
2021/01/17 03:31:46;;;;;;;57.90;28.23;;;-1.70;99.90;;;;;;4994873;28;20037;-79
2021/01/17 03:34:13;;;;;;;50.55;26.60;;;-1.60;99.90;;;;;;4994568;28;20470;-79
2021/01/17 03:36:39;;;;;;;54.33;27.42;;;-1.60;99.90;;;;;;4994791;28;20102;-79
2021/01/17 03:39:06;;;;;;;56.83;27.17;;;-1.60;99.90;;;;;;4993497;28;20039;-79
2021/01/17 03:41:32;;;;;;;51.88;24.88;;;-1.60;99.90;;;;;;4994435;28;20050;-79
2021/01/17 03:43:59;;;;;;;51.83;25.00;;;-1.60;99.90;;;;;;4994291;28;20030;-79
2021/01/17 03:46:27;;;;;;;60.55;27.27;;;-1.60;99.90;;;;;;4994790;28;20054;-79
2021/01/17 03:48:55;;;;;;;52.25;24.58;;;-1.60;99.90;;;;;;4994470;28;20041;-79
2021/01/17 03:51:21;;;;;;;58.47;26.42;;;-1.60;99.90;;;;;;4993025;28;20415;-79
2021/01/17 03:53:47;;;;;;;55.15;24.85;;;-1.60;99.90;;;;;;4994771;28;20054;-79
2021/01/17 03:56:13;;;;;;;48.95;24.35;;;-1.60;99.90;;;;;;4993861;28;20034;-79
2021/01/17 03:58:40;;;;;;;48.38;24.10;;;-1.60;99.90;;;;;;4994271;28;20081;-79
2021/01/17 04:01:06;;;;;;;49.80;24.30;;;-1.50;99.90;;;;;;4993662;28;20035;-79
2021/01/17 04:03:33;;;;;;;47.65;24.10;;;-1.60;99.90;;;;;;4992606;28;20054;-79
2021/01/17 04:05:59;;;;;;;49.95;26.40;;;-1.60;99.90;;;;;;4960367;28;20046;-80
2021/01/17 04:08:25;;;;;;;49.03;23.38;;;-1.50;99.90;;;;;;4976251;28;20534;-80
2021/01/17 04:10:51;;;;;;;52.20;23.95;;;-1.60;99.90;;;;;;5007396;28;20482;-79
2021/01/17 04:13:18;;;;;;;47.72;22.30;;;-1.50;99.90;;;;;;4993286;28;20057;-79
2021/01/17 04:15:44;;;;;;;47.53;23.10;;;-1.50;99.90;;;;;;4994240;28;20049;-79
2021/01/17 04:18:10;;;;;;;54.92;24.27;;;-1.50;99.90;;;;;;4993555;28;20027;-79
2021/01/17 04:20:37;;;;;;;50.67;24.77;;;-1.50;99.90;;;;;;4994240;28;20026;-79
2021/01/17 04:23:04;;;;;;;48.58;25.02;;;-1.50;99.90;;;;;;4993251;28;20486;-79
2021/01/17 04:25:31;;;;;;;53.42;25.30;;;-1.50;99.90;;;;;;4994140;28;20415;-79
2021/01/17 04:27:58;;;;;;;45.47;22.35;;;-1.50;99.90;;;;;;4993806;28;20401;-79
2021/01/17 04:30:30;;;;;;;52.97;26.02;;;-1.50;99.90;;;;;;4993700;28;20452;-80
2021/01/17 04:32:57;;;;;;;50.50;23.88;;;-1.50;99.90;;;;;;4989842;28;20043;-79
2021/01/17 04:35:23;;;;;;;50.67;23.95;;;-1.50;99.90;;;;;;4993374;28;20049;-79
2021/01/17 04:37:49;;;;;;;52.17;25.50;;;-1.50;99.90;;;;;;5003202;28;20038;-79
2021/01/17 04:40:17;;;;;;;286.77;112.85;;;-1.50;99.90;;;;;;4998467;28;20030;-79
2021/01/17 04:42:48;;;;;;;117.78;54.35;;;-1.50;99.90;;;;;;4993332;28;20031;-79
2021/01/17 04:45:19;;;;;;;410.42;166.85;;;-1.50;99.90;;;;;;4975405;28;20492;-79
2021/01/17 04:47:47;;;;;;;76.93;37.72;;;-1.50;99.90;;;;;;4993572;28;20030;-79
2021/01/17 04:50:17;;;;;;;156.73;70.75;;;-1.60;99.90;;;;;;4992694;28;20043;-79
2021/01/17 04:52:59;;;;;;;228.43;101.03;;;-1.60;99.90;;;;;;4993481;28;20026;-79
2021/01/17 04:55:26;;;;;;;90.88;41.75;;;-1.60;99.90;;;;;;4976100;28;20049;-79
2021/01/17 04:58:05;;;;;;;285.95;120.40;;;-1.60;99.90;;;;;;4993538;28;20384;-79
2021/01/17 05:00:33;;;;;;;116.57;54.97;;;-1.60;99.90;;;;;;4993235;28;20050;-79
2021/01/17 05:03:02;;;;;;;585.95;284.30;;;-1.60;99.90;;;;;;4993171;28;20361;-80
2021/01/17 05:05:39;;;;;;;191.30;87.47;;;-1.60;99.90;;;;;;4984116;28;20049;-79
2021/01/17 05:08:24;;;;;;;194.75;82.10;;;-1.50;99.90;;;;;;4992932;28;20034;-79
2021/01/17 05:11:05;;;;;;;146.05;61.50;;;-1.50;99.90;;;;;;4974890;28;20136;-79
2021/01/17 05:13:48;;;;;;;451.17;183.15;;;-1.50;99.90;;;;;;4991198;28;20031;-79
2021/01/17 05:16:16;;;;;;;251.98;100.85;;;-1.50;99.90;;;;;;4992685;28;20041;-79
2021/01/17 05:18:47;;;;;;;114.97;49.72;;;-1.50;99.90;;;;;;4993047;28;20037;-79
2021/01/17 05:21:19;;;;;;;74.40;35.08;;;-1.50;99.90;;;;;;4992665;28;20038;-79
2021/01/17 05:23:47;;;;;;;97.78;45.25;;;-1.50;99.90;;;;;;4993115;28;20030;-79
2021/01/17 05:26:14;;;;;;;111.60;49.72;;;-1.50;99.90;;;;;;5005814;28;20038;-79
2021/01/17 05:28:40;;;;;;;64.85;32.58;;;-1.50;99.90;;;;;;4992828;28;20030;-79
2021/01/17 05:31:06;;;;;;;129.88;58.25;;;-1.50;99.90;;;;;;4992647;28;20057;-79
2021/01/17 05:33:33;;;;;;;214.30;96.15;;;-1.50;99.90;;;;;;4992727;28;20035;-79
2021/01/17 05:36:00;;;;;;;73.50;35.60;;;-1.50;99.90;;;;;;4975018;28;20061;-80
2021/01/17 05:38:27;;;;;;;58.65;29.60;;;-1.50;99.90;;;;;;4975204;28;20046;-79
2021/01/17 05:40:53;;;;;;;104.93;45.50;;;-1.50;99.90;;;;;;4992343;28;20042;-79
2021/01/17 05:43:20;;;;;;;97.95;43.38;;;-1.50;99.90;;;;;;4974953;28;20034;-79
2021/01/17 05:45:46;;;;;;;61.45;29.95;;;-1.50;99.90;;;;;;4992842;28;20053;-79
2021/01/17 05:48:12;;;;;;;73.25;34.70;;;-1.50;99.90;;;;;;4991729;28;20506;-79
2021/01/17 05:50:43;;;;;;;92.13;40.67;;;-1.50;99.90;;;;;;4992484;28;20042;-79
2021/01/17 05:53:10;;;;;;;146.82;70.82;;;-1.50;99.90;;;;;;4974821;28;20038;-79
2021/01/17 05:55:45;;;;;;;79.07;36.20;;;-1.50;99.90;;;;;;4992413;28;20042;-79
2021/01/17 05:58:24;;;;;;;68.53;32.40;;;-1.50;99.90;;;;;;4992021;28;20034;-79
2021/01/17 06:01:01;;;;;;;100.70;45.72;;;-1.50;99.90;;;;;;4989062;28;20038;-79
2021/01/17 06:03:34;;;;;;;89.88;41.97;;;-1.50;99.90;;;;;;4975209;28;20034;-79
2021/01/17 06:06:05;;;;;;;65.22;31.27;;;-1.50;99.90;;;;;;4992141;28;20030;-80
2021/01/17 06:08:33;;;;;;;60.47;28.50;;;-1.40;99.90;;;;;;4982039;28;20505;-79
2021/01/17 06:11:12;;;;;;;54.70;26.98;;;-1.40;99.90;;;;;;4992510;28;20030;-80
2021/01/17 06:13:40;;;;;;;118.60;55.08;;;-1.40;99.90;;;;;;4991448;28;20050;-79
2021/01/17 06:16:25;;;;;;;82.43;39.50;;;-1.40;99.90;;;;;;4991815;28;20045;-80
2021/01/17 06:18:59;;;;;;;66.90;32.00;;;-1.40;99.90;;;;;;4974421;28;20392;-79
2021/01/17 06:21:28;;;;;;;63.83;29.38;;;-1.50;99.90;;;;;;4992066;28;20498;-79
2021/01/17 06:24:06;;;;;;;59.88;29.05;;;-1.40;99.90;;;;;;4987487;28;20046;-79
2021/01/17 06:26:38;;;;;;;59.35;29.05;;;-1.40;99.90;;;;;;4992208;28;20407;-79
2021/01/17 06:29:10;;;;;;;58.85;27.85;;;-1.40;99.90;;;;;;4992105;28;20038;-80
2021/01/17 06:31:37;;;;;;;62.53;30.35;;;-1.50;99.90;;;;;;4992254;28;20042;-79
2021/01/17 06:34:09;;;;;;;64.38;29.85;;;-1.40;99.90;;;;;;4991900;28;20464;-80
2021/01/17 06:36:36;;;;;;;;;;;-1.40;99.90;;;;;;4992864;28;20034;-79
2021/01/17 06:39:04;;;;;;;69.68;31.50;;;-1.40;99.90;;;;;;4991588;28;19916;-80
2021/01/17 06:41:40;;;;;;;119.93;56.58;;;-1.40;99.90;;;;;;4992044;28;20030;-79
2021/01/17 06:44:13;;;;;;;247.60;127.10;;;-1.40;99.90;;;;;;4991820;28;20034;-80
2021/01/17 06:46:45;;;;;;;103.45;55.65;;;-1.30;99.90;;;;;;4991777;28;20050;-80
2021/01/17 06:49:20;;;;;;;68.35;31.33;;;-1.40;99.90;;;;;;4991430;28;20033;-80
2021/01/17 06:51:48;;;;;;;67.55;32.05;;;-1.40;99.90;;;;;;4992269;28;20044;-79
2021/01/17 06:54:17;;;;;;;240.57;147.88;;;-1.30;99.90;;;;;;4992003;28;20467;-80
2021/01/17 06:56:48;;;;;;;80.15;42.50;;;-1.30;99.90;;;;;;4992164;28;20038;-79
2021/01/17 06:59:32;;;;;;;;;;;-1.40;99.90;;;;;;4992376;28;20042;-80
2021/01/17 07:02:16;;;;;;;64.57;31.48;;;-1.40;99.90;;;;;;4995706;28;20394;-80
2021/01/17 07:04:52;;;;;;;75.10;31.48;;;-1.30;99.90;;;;;;4991924;28;20376;-80
2021/01/17 07:07:43;;;;;;;82.28;38.35;;;-1.30;99.90;;;;;;4966424;28;20072;-79
2021/01/17 07:10:10;;;;;;;75.95;34.78;;;-1.30;99.90;;;;;;4994684;28;20034;-80
2021/01/17 07:13:02;;;;;;;72.30;34.88;;;-1.30;99.90;;;;;;4994362;28;20057;-80
2021/01/17 07:15:31;;;;;;;69.20;32.10;;;-1.30;99.90;;;;;;4995217;28;20034;-79
2021/01/17 07:18:13;;;;;;;71.47;33.42;;;-1.30;99.90;;;;;;4995136;28;20042;-79
2021/01/17 07:20:40;;;;;;;69.85;32.10;;;-1.30;99.90;;;;;;4995547;28;20030;-79
2021/01/17 07:23:09;;;;;;;65.22;31.58;;;-1.20;99.90;;;;;;4994486;28;20384;-80
2021/01/17 07:25:37;;;;;;;78.28;33.05;;;-1.30;99.90;;;;;;4978244;28;20050;-79
2021/01/17 07:28:08;;;;;;;99.20;47.22;;;-1.20;99.90;;;;;;4993235;28;20049;-80
2021/01/17 07:30:54;;;;;;;101.20;44.15;;;-1.20;99.90;;;;;;4977562;28;20490;-80
2021/01/17 07:33:28;;;;;;;161.82;83.20;;;-1.20;99.90;;;;;;4976580;28;20049;-80
2021/01/17 07:35:56;;;;;;;85.40;38.80;;;-1.20;99.90;;;;;;4995312;28;20038;-79
2021/01/17 07:38:26;;;;;;;93.22;43.45;;;-1.20;99.90;;;;;;4976599;28;20045;-80
2021/01/17 07:41:03;;;;;;;103.20;53.22;;;-1.20;99.90;;;;;;4994806;28;20034;-80
2021/01/17 07:43:33;;;;;;;77.93;37.67;;;-1.20;99.90;;;;;;4977085;28;20048;-79
2021/01/17 07:46:02;;;;;;;85.80;38.13;;;-1.20;99.90;;;;;;4962112;28;20050;-80
2021/01/17 07:48:30;;;;;;;72.85;33.40;;;-1.10;99.90;;;;;;4994632;28;20050;-79
2021/01/17 07:50:58;;;;;;;79.32;36.33;;;-1.10;99.90;;;;;;4977198;28;20034;-79
2021/01/17 07:53:41;;;;;;;68.03;33.55;;;-1.10;99.90;;;;;;4994189;28;20038;-79
2021/01/17 07:56:28;;;;;;;74.30;33.50;;;-1.10;99.90;;;;;;4990806;28;20045;-79
2021/01/17 07:59:02;;;;;;;74.43;32.65;;;-1.10;99.90;;;;;;4977227;28;20035;-79
2021/01/17 08:01:32;;;;;;;72.57;31.85;;;-1.00;99.90;;;;;;4994352;28;20428;-80
2021/01/17 08:04:01;;;;;;;74.95;34.10;;;-1.00;99.90;;;;;;4994979;28;20395;-80
2021/01/17 08:06:37;;;;;;;65.40;31.48;;;-1.00;99.90;;;;;;4994397;28;20065;-80
2021/01/17 08:09:08;;;;;;;74.43;32.35;;;-1.00;99.90;;;;;;4993805;28;20041;-80
2021/01/17 08:11:46;;;;;;;63.58;31.98;;;-1.00;99.90;;;;;;4994130;28;20034;-80
2021/01/17 08:14:20;;;;;;;65.38;30.40;;;-1.00;99.90;;;;;;4994996;28;20038;-80
2021/01/17 08:17:09;;;;;;;67.82;30.67;;;-0.90;99.90;;;;;;4997719;28;20042;-80
2021/01/17 08:19:55;;;;;;;67.40;29.58;;;-0.90;99.90;;;;;;5005138;28;20030;-79
2021/01/17 08:22:21;;;;;;;75.25;34.88;;;-0.80;99.90;;;;;;4993328;28;20217;-79
2021/01/17 08:24:49;;;;;;;69.53;31.02;;;-0.80;99.90;;;;;;4999361;28;20057;-79
2021/01/17 08:27:30;;;;;;;64.90;32.08;;;-0.80;99.90;;;;;;4993110;28;20077;-79
2021/01/17 08:30:02;;;;;;;70.57;33.08;;;-0.80;99.90;;;;;;4981825;28;20030;-78
2021/01/17 08:32:44;;;;;;;88.18;42.08;;;-0.80;99.90;;;;;;4993750;28;20034;-78
2021/01/17 08:35:24;;;;;;;65.72;33.28;;;-0.70;99.90;;;;;;4993798;28;20031;-79
2021/01/17 08:37:55;;;;;;;66.78;32.08;;;-0.70;99.90;;;;;;4976286;28;20045;-78
2021/01/17 08:40:30;;;;;;;67.90;32.03;;;-0.70;99.90;;;;;;4993188;28;20038;-78
2021/01/17 08:43:05;;;;;;;66.70;31.05;;;-0.70;99.90;;;;;;4993540;28;20522;-78
2021/01/17 08:45:33;;;;;;;68.28;32.78;;;-0.60;99.90;;;;;;4993465;28;20034;-78
2021/01/17 08:48:02;;;;;;;78.40;36.00;;;-0.60;99.90;;;;;;4993935;28;20041;-78
2021/01/17 08:50:38;;;;;;;68.85;31.70;;;-0.50;99.90;;;;;;4992672;28;20408;-78
2021/01/17 08:53:45;;;;;;;67.57;31.88;;;-0.50;99.90;;;;;;4993459;28;20478;-79
2021/01/17 08:56:14;;;;;;;61.83;31.30;;;-0.40;99.90;;;;;;4957826;28;20492;-78
2021/01/17 08:58:43;;;;;;;62.28;31.05;;;-0.40;99.90;;;;;;4993130;28;20395;-78
2021/01/17 09:01:11;;;;;;;64.00;31.77;;;-0.30;99.90;;;;;;4992509;28;20050;-78
2021/01/17 09:03:43;;;;;;;71.68;33.35;;;-0.20;99.90;;;;;;4993238;28;20492;-78
2021/01/17 09:06:12;;;;;;;65.32;31.20;;;-0.10;99.90;;;;;;4992782;28;20045;-78
2021/01/17 09:09:01;;;;;;;63.13;32.00;;;0.00;99.90;;;;;;4993530;28;20473;-78
2021/01/17 09:11:27;;;;;;;58.75;29.98;;;0.00;99.90;;;;;;4974849;28;20053;-78
2021/01/17 09:14:16;;;;;;;57.78;29.30;;;0.00;99.90;;;;;;4992926;28;20026;-77
2021/01/17 09:16:48;;;;;;;51.28;27.73;;;0.10;99.90;;;;;;4993151;28;20383;-77
2021/01/17 09:19:16;;;;;;;51.78;30.17;;;0.20;99.90;;;;;;4995464;28;20029;-77
2021/01/17 09:21:43;;;;;;;53.45;29.65;;;0.30;99.90;;;;;;5000769;28;20048;-77
2021/01/17 09:24:17;;;;;;;52.85;27.60;;;0.30;99.90;;;;;;4991497;28;20030;-77
2021/01/17 09:26:54;;;;;;;47.85;25.33;;;0.40;99.90;;;;;;4992758;28;20403;-78
2021/01/17 09:29:41;;;;;;;53.47;28.10;;;0.50;99.90;;;;;;4992527;28;20025;-77
2021/01/17 09:32:17;;;;;;;44.03;23.98;;;0.50;99.90;;;;;;4992234;28;20065;-77
2021/01/17 09:34:49;;;;;;;45.60;26.27;;;0.40;99.90;;;;;;4992796;28;20038;-77
2021/01/17 09:37:19;;;;;;;46.85;25.05;;;0.40;99.90;;;;;;4992234;28;20031;-77
2021/01/17 09:39:50;;;;;;;45.65;26.33;;;0.50;99.90;;;;;;4992880;28;20030;-77
2021/01/17 09:42:23;;;;;;;90.80;44.28;;;0.60;99.90;;;;;;4992164;28;20027;-77
2021/01/17 09:44:54;;;;;;;47.10;26.35;;;0.80;99.90;;;;;;4992663;28;20479;-77
2021/01/17 09:47:22;;;;;;;77.25;40.90;;;0.80;99.90;;;;;;4983932;28;20046;-76
2021/01/17 09:49:49;;;;;;;55.55;28.60;;;0.90;99.90;;;;;;4992445;28;20042;-77
2021/01/17 09:52:20;;;;;;;57.67;31.30;;;0.60;99.90;;;;;;4974740;28;20491;-77
2021/01/17 09:54:47;;;;;;;126.50;67.67;;;0.60;99.90;;;;;;4998270;28;20026;-77
2021/01/17 09:57:21;;;;;;;66.97;35.38;;;0.60;99.90;;;;;;4992177;28;20519;-76
2021/01/17 09:59:49;;;;;;;78.57;40.17;;;0.60;99.90;;;;;;4984754;28;20057;-77
2021/01/17 10:02:20;;;;;;;73.10;39.72;;;0.50;99.90;;;;;;5007679;28;20057;-77
2021/01/17 10:04:47;;;;;;;73.82;37.55;;;0.50;99.90;;;;;;5004967;28;20031;-78
2021/01/17 10:07:17;;;;;;;55.53;30.17;;;0.60;99.90;;;;;;4998131;28;20057;-78
2021/01/17 10:09:45;;;;;;;47.83;27.92;;;0.70;99.90;;;;;;4992726;28;20034;-78
2021/01/17 10:12:11;;;;;;;46.17;27.52;;;0.70;99.90;;;;;;5001591;28;20034;-78
2021/01/17 10:14:38;;;;;;;54.70;28.42;;;0.70;99.90;;;;;;4993411;28;20475;-79
2021/01/17 10:17:06;;;;;;;45.58;25.30;;;0.90;99.90;;;;;;4991785;28;20046;-78
2021/01/17 10:19:38;;;;;;;42.83;24.05;;;0.90;99.90;;;;;;5000307;28;20041;-78
2021/01/17 10:22:08;;;;;;;45.28;25.38;;;0.80;99.90;;;;;;4992456;28;20034;-77
2021/01/17 10:24:35;;;;;;;42.93;23.93;;;0.80;99.90;;;;;;5000310;28;20041;-78
2021/01/17 10:27:05;;;;;;;42.17;23.92;;;0.90;99.90;;;;;;4996101;28;20309;-78
2021/01/17 10:29:37;;;;;;;43.53;23.67;;;1.00;99.90;;;;;;5004435;28;20060;-78
2021/01/17 10:32:09;;;;;;;39.13;23.17;;;1.20;99.90;;;;;;4992738;28;20484;-78
2021/01/17 10:34:43;;;;;;;43.78;27.33;;;1.20;99.90;;;;;;4993576;28;20494;-78
2021/01/17 10:37:11;;;;;;;42.95;24.77;;;1.30;99.90;;;;;;4995032;28;20054;-78
2021/01/17 10:39:40;;;;;;;35.75;22.05;;;1.50;99.90;;;;;;4996002;28;20368;-78
2021/01/17 10:42:13;;;;;;;42.92;23.25;;;1.50;99.90;;;;;;4995608;28;20038;-78
2021/01/17 10:45:06;;;;;;;36.97;21.70;;;1.50;99.90;;;;;;4994925;28;20507;-78
2021/01/17 10:47:54;;;;;;;41.35;23.55;;;1.60;99.90;;;;;;4996017;28;20042;-78
2021/01/17 10:50:23;;;;;;;43.10;23.05;;;1.50;99.90;;;;;;4995376;28;20041;-78
2021/01/17 10:53:21;;;;;;;43.20;23.40;;;1.60;99.90;;;;;;4995279;28;20046;-78
2021/01/17 10:55:55;;;;;;;41.15;23.25;;;1.50;99.90;;;;;;4991449;28;20053;-78
2021/01/17 10:58:27;;;;;;;43.60;24.48;;;1.30;99.90;;;;;;4978103;28;20452;-77
2021/01/17 11:00:54;;;;;;;38.22;22.73;;;1.20;99.90;;;;;;4995845;28;20030;-78
2021/01/17 11:03:53;;;;;;;41.83;23.67;;;1.30;99.90;;;;;;4995029;28;20072;-78
2021/01/17 11:06:23;;;;;;;37.95;21.83;;;1.20;99.90;;;;;;4982255;28;20065;-78
2021/01/17 11:08:54;;;;;;;44.35;25.20;;;1.30;99.90;;;;;;4995710;28;20053;-78
2021/01/17 11:11:24;;;;;;;;;;;1.30;99.90;;;;;;4995868;28;20503;-74
2021/01/17 11:14:04;;;;;;;45.90;23.13;;;1.20;99.90;;;;;;4995876;28;19916;-74
2021/01/17 11:17:01;;;;;;;38.50;23.23;;;1.10;99.90;;;;;;4978703;28;20041;-75
2021/01/17 11:19:40;;;;;;;41.17;23.02;;;1.10;99.90;;;;;;5002245;28;20057;-72
2021/01/17 11:22:07;;;;;;;43.50;24.23;;;1.30;99.90;;;;;;5005842;28;20038;-78
2021/01/17 11:24:39;;;;;;;44.30;24.70;;;1.50;99.90;;;;;;4995452;28;20384;-74
2021/01/17 11:27:15;;;;;;;39.75;22.75;;;1.60;99.90;;;;;;4995196;28;20062;-74
2021/01/17 11:29:42;;;;;;;39.90;23.33;;;1.50;99.90;;;;;;4995073;28;20042;-74
2021/01/17 11:32:10;;;;;;;42.45;23.83;;;1.50;99.90;;;;;;4994835;28;20595;-74
2021/01/17 11:34:41;;;;;;;42.70;24.35;;;1.50;99.90;;;;;;4994895;28;20034;-74
2021/01/17 11:37:08;;;;;;;44.67;25.30;;;1.40;99.90;;;;;;4994518;28;20369;-75
2021/01/17 11:39:35;;;;;;;40.10;22.77;;;1.50;99.90;;;;;;4994827;28;20391;-74
2021/01/17 11:42:01;;;;;;;41.75;22.30;;;1.60;99.90;;;;;;4994936;28;20053;-73
2021/01/17 11:44:34;;;;;;;41.10;22.45;;;1.50;99.90;;;;;;4994395;28;20244;-74
2021/01/17 11:47:02;;;;;;;41.30;22.55;;;1.40;99.90;;;;;;4993656;28;20042;-73
2021/01/17 11:49:29;;;;;;;42.03;25.25;;;1.40;99.90;;;;;;4994254;28;20415;-74
2021/01/17 11:51:56;;;;;;;39.60;23.10;;;1.50;99.90;;;;;;4994909;28;20030;-74
2021/01/17 11:54:26;;;;;;;44.47;22.63;;;1.40;99.90;;;;;;4994890;28;20034;-74
2021/01/17 11:57:06;;;;;;;44.83;24.60;;;1.30;99.90;;;;;;4994378;28;20065;-74
2021/01/17 11:59:35;;;;;;;133.33;75.57;;;1.20;99.90;;;;;;4994491;28;20037;-74
2021/01/17 12:02:21;;;;;;;43.20;25.42;;;1.30;99.90;;;;;;4994937;28;20293;-73
2021/01/17 12:05:00;;;;;;;42.92;25.67;;;1.20;99.90;;;;;;4994258;28;20490;-73
2021/01/17 12:07:26;;;;;;;42.97;24.10;;;1.30;99.90;;;;;;4993748;28;20057;-74
2021/01/17 12:10:05;;;;;;;42.47;22.92;;;1.30;99.90;;;;;;4977189;28;20041;-73
2021/01/17 12:12:36;;;;;;;42.08;23.65;;;1.40;99.90;;;;;;4993061;28;20042;-72
2021/01/17 12:15:08;;;;;;;41.75;25.30;;;1.50;99.90;;;;;;4994018;28;20391;-73
2021/01/17 12:17:35;;;;;;;41.40;24.90;;;1.60;99.90;;;;;;4977480;28;20361;-74
2021/01/17 12:20:01;;;;;;;45.72;25.23;;;1.50;99.90;;;;;;4993841;28;20392;-74
2021/01/17 12:22:27;;;;;;;42.40;23.33;;;1.30;99.90;;;;;;5003489;28;20033;-74
2021/01/17 12:24:54;;;;;;;44.47;24.20;;;1.20;99.90;;;;;;4997428;28;20379;-74
2021/01/17 12:27:20;;;;;;;48.67;26.35;;;1.10;99.90;;;;;;4993244;28;20054;-73
2021/01/17 12:29:46;;;;;;;48.90;24.38;;;1.10;99.90;;;;;;4994518;28;20041;-73
2021/01/17 12:32:12;;;;;;;46.75;25.77;;;1.10;99.90;;;;;;4993791;28;20034;-74
2021/01/17 12:34:39;;;;;;;46.30;23.85;;;1.20;99.90;;;;;;4993873;28;20058;-74
2021/01/17 12:37:05;;;;;;;49.58;27.52;;;1.20;99.90;;;;;;4993584;28;20046;-75
2021/01/17 12:39:31;;;;;;;49.75;29.35;;;1.30;99.90;;;;;;4992746;28;20050;-75
2021/01/17 12:41:58;;;;;;;47.10;25.70;;;1.40;99.90;;;;;;4993945;28;20033;-77
2021/01/17 12:44:25;;;;;;;43.08;24.50;;;1.30;99.90;;;;;;4993175;28;20365;-75
2021/01/17 12:46:51;;;;;;;48.55;26.60;;;1.30;99.90;;;;;;4994077;28;20075;-75
2021/01/17 12:49:18;;;;;;;52.00;26.80;;;1.40;99.90;;;;;;4993409;28;20431;-75